sensor_id;sensor_type;location;lat;lon;timestamp;P1;durP1;ratioP1;P2;durP2;ratioP2
38637;SDS011;24401;53.034;-3.030;2023-04-24T00:01:05;10.17;;;4.10;;
38637;SDS011;24401;53.034;-3.030;2023-04-24T00:03:37;10.75;;;4.28;;
38637;SDS011;24401;53.034;-3.030;2023-04-24T00:06:08;4.70;;;4.07;;
38637;SDS011;24401;53.034;-3.030;2023-04-24T00:08:39;10.93;;;4.40;;
38637;SDS011;24401;53.034;-3.030;2023-04-24T00:11:09;4.07;;;3.63;;
38637;SDS011;24401;53.034;-3.030;2023-04-24T00:13:39;4.70;;;3.53;;
38637;SDS011;24401;53.034;-3.030;2023-04-24T00:16:10;4.47;;;3.43;;
38637;SDS011;24401;53.034;-3.030;2023-04-24T00:18:40;8.17;;;4.13;;
38637;SDS011;24401;53.034;-3.030;2023-04-24T00:21:11;5.13;;;4.07;;
38637;SDS011;24401;53.034;-3.030;2023-04-24T00:23:41;9.70;;;3.83;;
38637;SDS011;24401;53.034;-3.030;2023-04-24T00:26:11;7.00;;;4.23;;
38637;SDS011;24401;53.034;-3.030;2023-04-24T00:28:42;6.77;;;4.17;;
38637;SDS011;24401;53.034;-3.030;2023-04-24T00:31:12;5.90;;;5.03;;
38637;SDS011;24401;53.034;-3.030;2023-04-24T00:33:42;10.00;;;4.67;;
38637;SDS011;24401;53.034;-3.030;2023-04-24T00:36:12;6.93;;;4.07;;
38637;SDS011;24401;53.034;-3.030;2023-04-24T00:38:43;5.93;;;3.70;;
38637;SDS011;24401;53.034;-3.030;2023-04-24T00:41:13;12.47;;;4.17;;
38637;SDS011;24401;53.034;-3.030;2023-04-24T00:43:44;7.20;;;4.73;;
38637;SDS011;24401;53.034;-3.030;2023-04-24T00:46:14;5.67;;;4.10;;
38637;SDS011;24401;53.034;-3.030;2023-04-24T00:48:46;4.63;;;3.85;;
38637;SDS011;24401;53.034;-3.030;2023-04-24T00:51:16;4.83;;;4.07;;
38637;SDS011;24401;53.034;-3.030;2023-04-24T00:53:46;7.17;;;4.13;;
38637;SDS011;24401;53.034;-3.030;2023-04-24T00:56:16;4.97;;;4.00;;
38637;SDS011;24401;53.034;-3.030;2023-04-24T00:58:47;5.43;;;4.70;;
38637;SDS011;24401;53.034;-3.030;2023-04-24T01:01:20;4.50;;;4.10;;
38637;SDS011;24401;53.034;-3.030;2023-04-24T01:03:51;5.63;;;4.90;;
38637;SDS011;24401;53.034;-3.030;2023-04-24T01:06:22;7.78;;;3.60;;
38637;SDS011;24401;53.034;-3.030;2023-04-24T01:08:54;5.47;;;4.10;;
38637;SDS011;24401;53.034;-3.030;2023-04-24T01:11:25;5.30;;;3.95;;
38637;SDS011;24401;53.034;-3.030;2023-04-24T01:13:55;3.60;;;3.30;;
38637;SDS011;24401;53.034;-3.030;2023-04-24T01:16:26;7.93;;;3.77;;
38637;SDS011;24401;53.034;-3.030;2023-04-24T01:18:56;6.23;;;3.63;;
38637;SDS011;24401;53.034;-3.030;2023-04-24T01:21:26;9.37;;;4.17;;
38637;SDS011;24401;53.034;-3.030;2023-04-24T01:23:59;5.60;;;3.03;;
38637;SDS011;24401;53.034;-3.030;2023-04-24T01:26:30;4.97;;;3.77;;
38637;SDS011;24401;53.034;-3.030;2023-04-24T01:29:00;4.13;;;3.73;;
38637;SDS011;24401;53.034;-3.030;2023-04-24T01:31:30;7.43;;;3.17;;
38637;SDS011;24401;53.034;-3.030;2023-04-24T01:34:02;6.35;;;2.83;;
38637;SDS011;24401;53.034;-3.030;2023-04-24T01:36:32;7.73;;;3.30;;
38637;SDS011;24401;53.034;-3.030;2023-04-24T01:39:03;5.83;;;3.17;;
38637;SDS011;24401;53.034;-3.030;2023-04-24T01:41:33;7.03;;;3.43;;
38637;SDS011;24401;53.034;-3.030;2023-04-24T01:44:03;5.17;;;2.63;;
38637;SDS011;24401;53.034;-3.030;2023-04-24T01:46:34;6.73;;;3.00;;
38637;SDS011;24401;53.034;-3.030;2023-04-24T01:49:05;5.28;;;2.50;;
38637;SDS011;24401;53.034;-3.030;2023-04-24T01:51:35;4.67;;;2.73;;
38637;SDS011;24401;53.034;-3.030;2023-04-24T01:54:06;4.00;;;2.43;;
38637;SDS011;24401;53.034;-3.030;2023-04-24T01:56:36;4.50;;;2.90;;
38637;SDS011;24401;53.034;-3.030;2023-04-24T01:59:10;6.00;;;2.75;;
38637;SDS011;24401;53.034;-3.030;2023-04-24T02:01:41;3.33;;;2.93;;
38637;SDS011;24401;53.034;-3.030;2023-04-24T02:04:11;6.37;;;2.80;;
38637;SDS011;24401;53.034;-3.030;2023-04-24T02:06:41;5.50;;;2.43;;
38637;SDS011;24401;53.034;-3.030;2023-04-24T02:09:12;3.13;;;2.10;;
38637;SDS011;24401;53.034;-3.030;2023-04-24T02:11:42;6.47;;;2.80;;
38637;SDS011;24401;53.034;-3.030;2023-04-24T02:14:12;5.30;;;2.60;;
38637;SDS011;24401;53.034;-3.030;2023-04-24T02:16:42;4.87;;;3.30;;
38637;SDS011;24401;53.034;-3.030;2023-04-24T02:19:13;7.07;;;2.53;;
38637;SDS011;24401;53.034;-3.030;2023-04-24T02:21:44;5.83;;;2.70;;
38637;SDS011;24401;53.034;-3.030;2023-04-24T02:24:14;3.43;;;3.00;;
38637;SDS011;24401;53.034;-3.030;2023-04-24T02:26:45;4.40;;;2.55;;
38637;SDS011;24401;53.034;-3.030;2023-04-24T02:29:16;8.07;;;3.30;;
38637;SDS011;24401;53.034;-3.030;2023-04-24T02:31:46;3.57;;;2.43;;
38637;SDS011;24401;53.034;-3.030;2023-04-24T02:34:16;3.53;;;2.73;;
38637;SDS011;24401;53.034;-3.030;2023-04-24T02:36:46;4.77;;;2.03;;
38637;SDS011;24401;53.034;-3.030;2023-04-24T02:39:16;3.20;;;1.63;;
38637;SDS011;24401;53.034;-3.030;2023-04-24T02:41:47;4.37;;;2.30;;
38637;SDS011;24401;53.034;-3.030;2023-04-24T02:44:17;14.57;;;2.67;;
38637;SDS011;24401;53.034;-3.030;2023-04-24T02:46:47;7.90;;;2.67;;
38637;SDS011;24401;53.034;-3.030;2023-04-24T02:49:17;7.10;;;2.20;;
38637;SDS011;24401;53.034;-3.030;2023-04-24T02:51:48;4.03;;;2.63;;
38637;SDS011;24401;53.034;-3.030;2023-04-24T02:54:18;6.47;;;2.40;;
38637;SDS011;24401;53.034;-3.030;2023-04-24T02:56:48;5.83;;;2.80;;
38637;SDS011;24401;53.034;-3.030;2023-04-24T02:59:18;5.27;;;2.63;;
38637;SDS011;24401;53.034;-3.030;2023-04-24T03:01:48;4.40;;;2.97;;
38637;SDS011;24401;53.034;-3.030;2023-04-24T03:04:19;3.10;;;2.20;;
38637;SDS011;24401;53.034;-3.030;2023-04-24T03:06:50;4.45;;;1.80;;
38637;SDS011;24401;53.034;-3.030;2023-04-24T03:09:22;6.30;;;1.83;;
38637;SDS011;24401;53.034;-3.030;2023-04-24T03:11:53;4.13;;;1.77;;
38637;SDS011;24401;53.034;-3.030;2023-04-24T03:14:23;2.67;;;1.50;;
38637;SDS011;24401;53.034;-3.030;2023-04-24T03:16:53;3.63;;;1.50;;
38637;SDS011;24401;53.034;-3.030;2023-04-24T03:19:24;5.90;;;1.93;;
38637;SDS011;24401;53.034;-3.030;2023-04-24T03:21:54;3.27;;;1.57;;
38637;SDS011;24401;53.034;-3.030;2023-04-24T03:24:24;1.67;;;1.30;;
38637;SDS011;24401;53.034;-3.030;2023-04-24T03:26:57;2.40;;;1.65;;
38637;SDS011;24401;53.034;-3.030;2023-04-24T03:29:28;3.17;;;1.37;;
38637;SDS011;24401;53.034;-3.030;2023-04-24T03:31:58;5.17;;;2.30;;
38637;SDS011;24401;53.034;-3.030;2023-04-24T03:34:28;4.60;;;2.63;;
38637;SDS011;24401;53.034;-3.030;2023-04-24T03:36:58;4.17;;;1.97;;
38637;SDS011;24401;53.034;-3.030;2023-04-24T03:39:29;3.83;;;2.17;;
38637;SDS011;24401;53.034;-3.030;2023-04-24T03:41:59;2.93;;;1.73;;
38637;SDS011;24401;53.034;-3.030;2023-04-24T03:44:30;4.17;;;2.13;;
38637;SDS011;24401;53.034;-3.030;2023-04-24T03:47:00;3.47;;;2.27;;
38637;SDS011;24401;53.034;-3.030;2023-04-24T03:49:30;4.23;;;1.90;;
38637;SDS011;24401;53.034;-3.030;2023-04-24T03:52:01;2.60;;;1.80;;
38637;SDS011;24401;53.034;-3.030;2023-04-24T03:54:31;2.93;;;2.00;;
38637;SDS011;24401;53.034;-3.030;2023-04-24T03:57:01;2.90;;;1.70;;
38637;SDS011;24401;53.034;-3.030;2023-04-24T03:59:32;1.97;;;1.50;;
38637;SDS011;24401;53.034;-3.030;2023-04-24T04:02:02;1.50;;;1.40;;
38637;SDS011;24401;53.034;-3.030;2023-04-24T04:04:32;3.27;;;1.60;;
38637;SDS011;24401;53.034;-3.030;2023-04-24T04:07:02;2.50;;;1.40;;
38637;SDS011;24401;53.034;-3.030;2023-04-24T04:09:32;2.07;;;1.20;;
38637;SDS011;24401;53.034;-3.030;2023-04-24T04:12:03;4.40;;;1.33;;
38637;SDS011;24401;53.034;-3.030;2023-04-24T04:14:33;2.83;;;1.33;;
38637;SDS011;24401;53.034;-3.030;2023-04-24T04:17:03;5.60;;;1.20;;
38637;SDS011;24401;53.034;-3.030;2023-04-24T04:19:33;3.07;;;1.13;;
38637;SDS011;24401;53.034;-3.030;2023-04-24T04:22:03;1.70;;;1.13;;
38637;SDS011;24401;53.034;-3.030;2023-04-24T04:24:34;2.50;;;1.60;;
38637;SDS011;24401;53.034;-3.030;2023-04-24T04:27:07;6.75;;;1.65;;
38637;SDS011;24401;53.034;-3.030;2023-04-24T04:29:38;2.50;;;1.37;;
38637;SDS011;24401;53.034;-3.030;2023-04-24T04:32:08;2.33;;;1.40;;
38637;SDS011;24401;53.034;-3.030;2023-04-24T04:34:38;4.97;;;1.37;;
38637;SDS011;24401;53.034;-3.030;2023-04-24T04:37:09;2.60;;;1.23;;
38637;SDS011;24401;53.034;-3.030;2023-04-24T04:39:41;2.80;;;1.35;;
38637;SDS011;24401;53.034;-3.030;2023-04-24T04:42:11;4.67;;;1.40;;
38637;SDS011;24401;53.034;-3.030;2023-04-24T04:44:41;1.53;;;1.23;;
38637;SDS011;24401;53.034;-3.030;2023-04-24T04:47:11;2.80;;;1.10;;
38637;SDS011;24401;53.034;-3.030;2023-04-24T04:49:41;1.13;;;0.90;;
38637;SDS011;24401;53.034;-3.030;2023-04-24T04:52:13;3.70;;;1.15;;
38637;SDS011;24401;53.034;-3.030;2023-04-24T04:54:43;4.53;;;1.23;;
38637;SDS011;24401;53.034;-3.030;2023-04-24T04:57:13;1.60;;;0.97;;
38637;SDS011;24401;53.034;-3.030;2023-04-24T04:59:44;5.60;;;1.00;;
38637;SDS011;24401;53.034;-3.030;2023-04-24T05:02:14;5.87;;;1.20;;
38637;SDS011;24401;53.034;-3.030;2023-04-24T05:04:45;1.67;;;0.80;;
38637;SDS011;24401;53.034;-3.030;2023-04-24T05:07:15;2.00;;;0.73;;
38637;SDS011;24401;53.034;-3.030;2023-04-24T05:09:45;3.97;;;1.07;;
38637;SDS011;24401;53.034;-3.030;2023-04-24T05:12:15;1.83;;;1.00;;
38637;SDS011;24401;53.034;-3.030;2023-04-24T05:14:45;3.13;;;1.13;;
38637;SDS011;24401;53.034;-3.030;2023-04-24T05:17:16;1.20;;;0.97;;
38637;SDS011;24401;53.034;-3.030;2023-04-24T05:19:46;3.30;;;0.73;;
38637;SDS011;24401;53.034;-3.030;2023-04-24T05:22:18;3.30;;;0.95;;
38637;SDS011;24401;53.034;-3.030;2023-04-24T05:24:50;1.65;;;0.90;;
38637;SDS011;24401;53.034;-3.030;2023-04-24T05:27:21;2.00;;;0.80;;
38637;SDS011;24401;53.034;-3.030;2023-04-24T05:29:51;3.03;;;0.73;;
38637;SDS011;24401;53.034;-3.030;2023-04-24T05:32:21;1.27;;;0.97;;
38637;SDS011;24401;53.034;-3.030;2023-04-24T05:34:51;1.40;;;0.60;;
38637;SDS011;24401;53.034;-3.030;2023-04-24T05:37:22;3.47;;;0.90;;
38637;SDS011;24401;53.034;-3.030;2023-04-24T05:39:52;1.37;;;1.03;;
38637;SDS011;24401;53.034;-3.030;2023-04-24T05:42:22;1.57;;;0.70;;
38637;SDS011;24401;53.034;-3.030;2023-04-24T05:44:52;5.00;;;1.37;;
38637;SDS011;24401;53.034;-3.030;2023-04-24T05:47:24;3.03;;;1.08;;
38637;SDS011;24401;53.034;-3.030;2023-04-24T05:49:56;2.58;;;1.25;;
38637;SDS011;24401;53.034;-3.030;2023-04-24T05:52:26;4.37;;;0.63;;
38637;SDS011;24401;53.034;-3.030;2023-04-24T05:54:56;2.73;;;1.20;;
38637;SDS011;24401;53.034;-3.030;2023-04-24T05:57:26;1.97;;;0.93;;
38637;SDS011;24401;53.034;-3.030;2023-04-24T05:59:57;7.37;;;1.37;;
38637;SDS011;24401;53.034;-3.030;2023-04-24T06:02:27;2.70;;;1.00;;
38637;SDS011;24401;53.034;-3.030;2023-04-24T06:04:58;3.45;;;1.38;;
38637;SDS011;24401;53.034;-3.030;2023-04-24T06:07:29;2.30;;;0.80;;
38637;SDS011;24401;53.034;-3.030;2023-04-24T06:10:00;3.13;;;1.03;;
38637;SDS011;24401;53.034;-3.030;2023-04-24T06:12:30;1.47;;;0.83;;
38637;SDS011;24401;53.034;-3.030;2023-04-24T06:15:01;4.47;;;1.10;;
38637;SDS011;24401;53.034;-3.030;2023-04-24T06:17:31;1.87;;;0.90;;
38637;SDS011;24401;53.034;-3.030;2023-04-24T06:20:02;2.10;;;0.87;;
38637;SDS011;24401;53.034;-3.030;2023-04-24T06:22:35;3.28;;;1.45;;
38637;SDS011;24401;53.034;-3.030;2023-04-24T06:25:05;3.13;;;0.97;;
38637;SDS011;24401;53.034;-3.030;2023-04-24T06:27:36;3.43;;;0.80;;
38637;SDS011;24401;53.034;-3.030;2023-04-24T06:30:06;2.00;;;0.90;;
38637;SDS011;24401;53.034;-3.030;2023-04-24T06:32:37;4.50;;;0.97;;
38637;SDS011;24401;53.034;-3.030;2023-04-24T06:35:07;2.30;;;1.00;;
38637;SDS011;24401;53.034;-3.030;2023-04-24T06:37:41;1.57;;;0.83;;
38637;SDS011;24401;53.034;-3.030;2023-04-24T06:40:11;1.25;;;0.93;;
38637;SDS011;24401;53.034;-3.030;2023-04-24T06:42:42;1.90;;;0.93;;
38637;SDS011;24401;53.034;-3.030;2023-04-24T06:45:12;1.27;;;0.87;;
38637;SDS011;24401;53.034;-3.030;2023-04-24T06:47:42;1.90;;;1.00;;
38637;SDS011;24401;53.034;-3.030;2023-04-24T06:50:13;1.80;;;1.00;;
38637;SDS011;24401;53.034;-3.030;2023-04-24T06:52:43;6.43;;;1.03;;
38637;SDS011;24401;53.034;-3.030;2023-04-24T06:55:14;1.60;;;0.80;;
38637;SDS011;24401;53.034;-3.030;2023-04-24T06:57:46;5.47;;;1.20;;
38637;SDS011;24401;53.034;-3.030;2023-04-24T07:00:19;2.77;;;0.63;;
38637;SDS011;24401;53.034;-3.030;2023-04-24T07:02:49;3.85;;;1.02;;
38637;SDS011;24401;53.034;-3.030;2023-04-24T07:05:20;1.87;;;0.50;;
38637;SDS011;24401;53.034;-3.030;2023-04-24T07:07:50;4.87;;;0.70;;
38637;SDS011;24401;53.034;-3.030;2023-04-24T07:10:21;2.27;;;0.70;;
38637;SDS011;24401;53.034;-3.030;2023-04-24T07:12:51;7.17;;;1.07;;
38637;SDS011;24401;53.034;-3.030;2023-04-24T07:15:22;4.00;;;0.87;;
38637;SDS011;24401;53.034;-3.030;2023-04-24T07:17:53;1.95;;;0.70;;
38637;SDS011;24401;53.034;-3.030;2023-04-24T07:20:23;2.80;;;0.73;;
38637;SDS011;24401;53.034;-3.030;2023-04-24T07:22:53;1.20;;;0.73;;
38637;SDS011;24401;53.034;-3.030;2023-04-24T07:25:23;4.03;;;0.70;;
38637;SDS011;24401;53.034;-3.030;2023-04-24T07:27:54;1.40;;;0.60;;
38637;SDS011;24401;53.034;-3.030;2023-04-24T07:30:24;5.03;;;1.17;;
38637;SDS011;24401;53.034;-3.030;2023-04-24T07:32:54;2.57;;;1.30;;
38637;SDS011;24401;53.034;-3.030;2023-04-24T07:35:26;7.67;;;0.80;;
38637;SDS011;24401;53.034;-3.030;2023-04-24T07:37:56;4.03;;;1.23;;
38637;SDS011;24401;53.034;-3.030;2023-04-24T07:40:26;2.67;;;0.97;;
38637;SDS011;24401;53.034;-3.030;2023-04-24T07:42:56;2.07;;;0.90;;
38637;SDS011;24401;53.034;-3.030;2023-04-24T07:45:27;1.93;;;0.90;;
38637;SDS011;24401;53.034;-3.030;2023-04-24T07:47:58;3.83;;;1.23;;
38637;SDS011;24401;53.034;-3.030;2023-04-24T07:50:28;2.50;;;1.07;;
38637;SDS011;24401;53.034;-3.030;2023-04-24T07:52:58;2.63;;;0.83;;
38637;SDS011;24401;53.034;-3.030;2023-04-24T07:55:28;3.47;;;0.80;;
38637;SDS011;24401;53.034;-3.030;2023-04-24T07:57:59;7.40;;;1.07;;
38637;SDS011;24401;53.034;-3.030;2023-04-24T08:00:29;4.30;;;1.30;;
38637;SDS011;24401;53.034;-3.030;2023-04-24T08:02:59;3.20;;;0.90;;
38637;SDS011;24401;53.034;-3.030;2023-04-24T08:05:29;2.47;;;0.97;;
38637;SDS011;24401;53.034;-3.030;2023-04-24T08:08:00;3.10;;;0.90;;
38637;SDS011;24401;53.034;-3.030;2023-04-24T08:10:30;2.40;;;0.90;;
38637;SDS011;24401;53.034;-3.030;2023-04-24T08:13:00;4.53;;;1.67;;
38637;SDS011;24401;53.034;-3.030;2023-04-24T08:15:30;1.60;;;0.70;;
38637;SDS011;24401;53.034;-3.030;2023-04-24T08:18:01;1.63;;;0.90;;
38637;SDS011;24401;53.034;-3.030;2023-04-24T08:20:31;4.60;;;0.73;;
38637;SDS011;24401;53.034;-3.030;2023-04-24T08:23:01;3.03;;;0.60;;
38637;SDS011;24401;53.034;-3.030;2023-04-24T08:25:31;1.73;;;0.77;;
38637;SDS011;24401;53.034;-3.030;2023-04-24T08:28:02;2.93;;;1.17;;
38637;SDS011;24401;53.034;-3.030;2023-04-24T08:30:33;1.52;;;0.75;;
38637;SDS011;24401;53.034;-3.030;2023-04-24T08:33:03;8.97;;;1.10;;
38637;SDS011;24401;53.034;-3.030;2023-04-24T08:35:33;1.57;;;0.90;;
38637;SDS011;24401;53.034;-3.030;2023-04-24T08:38:04;1.27;;;0.77;;
38637;SDS011;24401;53.034;-3.030;2023-04-24T08:40:34;2.90;;;1.00;;
38637;SDS011;24401;53.034;-3.030;2023-04-24T08:43:05;2.47;;;0.93;;
38637;SDS011;24401;53.034;-3.030;2023-04-24T08:45:35;3.93;;;1.00;;
38637;SDS011;24401;53.034;-3.030;2023-04-24T08:48:06;3.43;;;1.00;;
38637;SDS011;24401;53.034;-3.030;2023-04-24T08:50:37;2.53;;;0.98;;
38637;SDS011;24401;53.034;-3.030;2023-04-24T08:53:08;2.90;;;1.13;;
38637;SDS011;24401;53.034;-3.030;2023-04-24T08:55:38;2.50;;;0.70;;
38637;SDS011;24401;53.034;-3.030;2023-04-24T08:58:08;4.00;;;1.20;;
38637;SDS011;24401;53.034;-3.030;2023-04-24T09:00:39;3.40;;;1.17;;
38637;SDS011;24401;53.034;-3.030;2023-04-24T09:03:09;8.00;;;1.17;;
38637;SDS011;24401;53.034;-3.030;2023-04-24T09:05:39;3.23;;;1.20;;
38637;SDS011;24401;53.034;-3.030;2023-04-24T09:08:10;3.67;;;1.10;;
38637;SDS011;24401;53.034;-3.030;2023-04-24T09:10:43;4.60;;;1.05;;
38637;SDS011;24401;53.034;-3.030;2023-04-24T09:13:14;2.07;;;1.00;;
38637;SDS011;24401;53.034;-3.030;2023-04-24T09:15:44;2.63;;;1.00;;
38637;SDS011;24401;53.034;-3.030;2023-04-24T09:18:14;1.53;;;0.93;;
38637;SDS011;24401;53.034;-3.030;2023-04-24T09:21:01;2.63;;;1.23;;
38637;SDS011;24401;53.034;-3.030;2023-04-24T09:23:32;2.80;;;1.40;;
38637;SDS011;24401;53.034;-3.030;2023-04-24T09:26:02;2.87;;;1.10;;
38637;SDS011;24401;53.034;-3.030;2023-04-24T09:28:35;2.67;;;1.30;;
38637;SDS011;24401;53.034;-3.030;2023-04-24T09:31:08;6.05;;;1.30;;
38637;SDS011;24401;53.034;-3.030;2023-04-24T09:33:38;2.97;;;1.17;;
38637;SDS011;24401;53.034;-3.030;2023-04-24T09:36:08;3.43;;;2.17;;
38637;SDS011;24401;53.034;-3.030;2023-04-24T09:38:39;3.17;;;1.77;;
38637;SDS011;24401;53.034;-3.030;2023-04-24T09:41:12;3.13;;;1.37;;
38637;SDS011;24401;53.034;-3.030;2023-04-24T09:43:43;2.92;;;1.50;;
38637;SDS011;24401;53.034;-3.030;2023-04-24T09:46:13;4.63;;;1.93;;
38637;SDS011;24401;53.034;-3.030;2023-04-24T09:48:43;3.97;;;1.50;;
38637;SDS011;24401;53.034;-3.030;2023-04-24T09:51:14;2.80;;;1.33;;
38637;SDS011;24401;53.034;-3.030;2023-04-24T09:53:46;3.03;;;1.80;;
38637;SDS011;24401;53.034;-3.030;2023-04-24T09:56:16;10.15;;;1.92;;
38637;SDS011;24401;53.034;-3.030;2023-04-24T09:58:47;8.30;;;2.23;;
38637;SDS011;24401;53.034;-3.030;2023-04-24T10:01:28;4.30;;;2.20;;
38637;SDS011;24401;53.034;-3.030;2023-04-24T10:03:59;2.85;;;1.70;;
38637;SDS011;24401;53.034;-3.030;2023-04-24T10:06:33;2.70;;;1.97;;
38637;SDS011;24401;53.034;-3.030;2023-04-24T10:09:04;3.20;;;2.13;;
38637;SDS011;24401;53.034;-3.030;2023-04-24T10:11:34;2.97;;;2.40;;
38637;SDS011;24401;53.034;-3.030;2023-04-24T10:14:05;5.50;;;2.67;;
38637;SDS011;24401;53.034;-3.030;2023-04-24T10:16:35;5.30;;;2.67;;
38637;SDS011;24401;53.034;-3.030;2023-04-24T10:19:06;3.20;;;2.17;;
38637;SDS011;24401;53.034;-3.030;2023-04-24T10:21:36;2.40;;;2.20;;
38637;SDS011;24401;53.034;-3.030;2023-04-24T10:24:15;2.67;;;1.73;;
38637;SDS011;24401;53.034;-3.030;2023-04-24T10:26:46;4.80;;;1.90;;
38637;SDS011;24401;53.034;-3.030;2023-04-24T10:29:18;3.63;;;1.33;;
38637;SDS011;24401;53.034;-3.030;2023-04-24T10:31:49;2.30;;;1.70;;
38637;SDS011;24401;53.034;-3.030;2023-04-24T10:34:19;7.97;;;1.87;;
38637;SDS011;24401;53.034;-3.030;2023-04-24T10:36:51;3.83;;;1.73;;
38637;SDS011;24401;53.034;-3.030;2023-04-24T10:39:22;14.07;;;2.20;;
38637;SDS011;24401;53.034;-3.030;2023-04-24T10:41:53;2.07;;;1.87;;
38637;SDS011;24401;53.034;-3.030;2023-04-24T10:44:23;2.80;;;1.43;;
38637;SDS011;24401;53.034;-3.030;2023-04-24T10:46:54;1.87;;;1.70;;
38637;SDS011;24401;53.034;-3.030;2023-04-24T10:49:28;1.48;;;1.38;;
38637;SDS011;24401;53.034;-3.030;2023-04-24T10:52:00;7.05;;;1.63;;
38637;SDS011;24401;53.034;-3.030;2023-04-24T10:59:51;1.58;;;1.33;;
38637;SDS011;24401;53.034;-3.030;2023-04-24T11:02:35;1.33;;;1.20;;
38637;SDS011;24401;53.034;-3.030;2023-04-24T11:05:06;2.35;;;1.00;;
38637;SDS011;24401;53.034;-3.030;2023-04-24T11:08:09;4.87;;;1.47;;
38637;SDS011;24401;53.034;-3.030;2023-04-24T11:10:26;2.85;;;1.40;;
38637;SDS011;24401;53.034;-3.030;2023-04-24T11:12:57;2.07;;;1.20;;
38637;SDS011;24401;53.034;-3.030;2023-04-24T11:15:27;4.40;;;1.47;;
38637;SDS011;24401;53.034;-3.030;2023-04-24T11:17:59;3.03;;;1.60;;
38637;SDS011;24401;53.034;-3.030;2023-04-24T11:20:29;4.63;;;1.30;;
38637;SDS011;24401;53.034;-3.030;2023-04-24T11:23:03;3.37;;;1.80;;
38637;SDS011;24401;53.034;-3.030;2023-04-24T11:25:34;2.55;;;1.40;;
38637;SDS011;24401;53.034;-3.030;2023-04-24T11:28:05;1.42;;;0.98;;
38637;SDS011;24401;53.034;-3.030;2023-04-24T11:30:36;5.00;;;1.43;;
38637;SDS011;24401;53.034;-3.030;2023-04-24T11:33:09;3.53;;;2.00;;
38637;SDS011;24401;53.034;-3.030;2023-04-24T11:35:40;3.67;;;1.80;;
38637;SDS011;24401;53.034;-3.030;2023-04-24T11:38:10;2.00;;;1.27;;
38637;SDS011;24401;53.034;-3.030;2023-04-24T11:40:41;2.17;;;1.20;;
38637;SDS011;24401;53.034;-3.030;2023-04-24T11:43:11;1.93;;;1.30;;
38637;SDS011;24401;53.034;-3.030;2023-04-24T11:45:47;1.90;;;1.37;;
38637;SDS011;24401;53.034;-3.030;2023-04-24T11:48:20;5.03;;;1.83;;
38637;SDS011;24401;53.034;-3.030;2023-04-24T11:50:51;2.97;;;1.35;;
38637;SDS011;24401;53.034;-3.030;2023-04-24T11:53:21;3.63;;;1.30;;
38637;SDS011;24401;53.034;-3.030;2023-04-24T11:55:51;3.23;;;1.40;;
38637;SDS011;24401;53.034;-3.030;2023-04-24T11:58:22;2.40;;;1.33;;
38637;SDS011;24401;53.034;-3.030;2023-04-24T12:00:56;2.17;;;1.30;;
38637;SDS011;24401;53.034;-3.030;2023-04-24T12:03:27;3.90;;;1.45;;
38637;SDS011;24401;53.034;-3.030;2023-04-24T12:06:06;2.87;;;1.50;;
38637;SDS011;24401;53.034;-3.030;2023-04-24T12:08:39;3.30;;;1.10;;
38637;SDS011;24401;53.034;-3.030;2023-04-24T12:11:10;4.33;;;1.50;;
38637;SDS011;24401;53.034;-3.030;2023-04-24T12:13:40;3.90;;;1.97;;
38637;SDS011;24401;53.034;-3.030;2023-04-24T12:16:10;3.60;;;1.30;;
38637;SDS011;24401;53.034;-3.030;2023-04-24T12:18:41;4.20;;;1.77;;
38637;SDS011;24401;53.034;-3.030;2023-04-24T12:21:19;1.88;;;1.73;;
38637;SDS011;24401;53.034;-3.030;2023-04-24T12:23:50;2.58;;;1.60;;
38637;SDS011;24401;53.034;-3.030;2023-04-24T12:26:21;4.93;;;1.50;;
38637;SDS011;24401;53.034;-3.030;2023-04-24T12:28:52;2.30;;;1.45;;
38637;SDS011;24401;53.034;-3.030;2023-04-24T12:31:22;2.53;;;1.10;;
38637;SDS011;24401;53.034;-3.030;2023-04-24T12:33:53;3.13;;;1.17;;
38637;SDS011;24401;53.034;-3.030;2023-04-24T12:36:24;2.22;;;1.40;;
38637;SDS011;24401;53.034;-3.030;2023-04-24T12:38:56;3.40;;;1.27;;
38637;SDS011;24401;53.034;-3.030;2023-04-24T12:41:26;3.47;;;1.10;;
38637;SDS011;24401;53.034;-3.030;2023-04-24T12:44:00;3.33;;;1.35;;
38637;SDS011;24401;53.034;-3.030;2023-04-24T12:46:30;4.20;;;1.40;;
38637;SDS011;24401;53.034;-3.030;2023-04-24T12:49:01;3.87;;;1.27;;
38637;SDS011;24401;53.034;-3.030;2023-04-24T12:51:31;3.77;;;2.37;;
38637;SDS011;24401;53.034;-3.030;2023-04-24T12:54:01;5.13;;;1.43;;
38637;SDS011;24401;53.034;-3.030;2023-04-24T12:56:31;4.93;;;1.80;;
38637;SDS011;24401;53.034;-3.030;2023-04-24T12:59:02;4.23;;;1.70;;
38637;SDS011;24401;53.034;-3.030;2023-04-24T13:01:32;4.80;;;1.40;;
38637;SDS011;24401;53.034;-3.030;2023-04-24T13:04:02;5.30;;;1.80;;
38637;SDS011;24401;53.034;-3.030;2023-04-24T13:06:32;5.67;;;1.60;;
38637;SDS011;24401;53.034;-3.030;2023-04-24T13:09:03;2.60;;;1.50;;
38637;SDS011;24401;53.034;-3.030;2023-04-24T13:11:33;5.80;;;2.10;;
38637;SDS011;24401;53.034;-3.030;2023-04-24T13:14:03;3.97;;;1.37;;
38637;SDS011;24401;53.034;-3.030;2023-04-24T13:16:33;6.87;;;2.33;;
38637;SDS011;24401;53.034;-3.030;2023-04-24T13:19:04;7.80;;;1.57;;
38637;SDS011;24401;53.034;-3.030;2023-04-24T13:21:34;5.77;;;1.97;;
38637;SDS011;24401;53.034;-3.030;2023-04-24T13:24:04;6.93;;;2.40;;
38637;SDS011;24401;53.034;-3.030;2023-04-24T13:26:35;5.53;;;1.87;;
38637;SDS011;24401;53.034;-3.030;2023-04-24T13:29:05;7.47;;;2.37;;
38637;SDS011;24401;53.034;-3.030;2023-04-24T13:31:36;3.17;;;1.90;;
38637;SDS011;24401;53.034;-3.030;2023-04-24T13:34:06;13.00;;;2.20;;
38637;SDS011;24401;53.034;-3.030;2023-04-24T13:36:37;10.33;;;1.93;;
38637;SDS011;24401;53.034;-3.030;2023-04-24T13:39:07;7.33;;;3.27;;
38637;SDS011;24401;53.034;-3.030;2023-04-24T13:41:37;5.60;;;2.10;;
38637;SDS011;24401;53.034;-3.030;2023-04-24T13:44:07;4.13;;;1.67;;
38637;SDS011;24401;53.034;-3.030;2023-04-24T13:46:38;4.33;;;1.60;;
38637;SDS011;24401;53.034;-3.030;2023-04-24T13:49:08;7.03;;;1.80;;
38637;SDS011;24401;53.034;-3.030;2023-04-24T13:51:38;5.80;;;2.43;;
38637;SDS011;24401;53.034;-3.030;2023-04-24T13:54:09;3.60;;;1.73;;
38637;SDS011;24401;53.034;-3.030;2023-04-24T13:56:39;10.77;;;1.63;;
38637;SDS011;24401;53.034;-3.030;2023-04-24T13:59:11;3.57;;;1.63;;
38637;SDS011;24401;53.034;-3.030;2023-04-24T14:04:12;8.30;;;1.75;;
38637;SDS011;24401;53.034;-3.030;2023-04-24T14:06:43;6.23;;;1.50;;
38637;SDS011;24401;53.034;-3.030;2023-04-24T14:09:13;4.22;;;1.50;;
38637;SDS011;24401;53.034;-3.030;2023-04-24T14:11:43;6.60;;;1.60;;
38637;SDS011;24401;53.034;-3.030;2023-04-24T14:14:14;3.17;;;1.73;;
38637;SDS011;24401;53.034;-3.030;2023-04-24T14:16:44;4.97;;;1.50;;
38637;SDS011;24401;53.034;-3.030;2023-04-24T14:19:15;4.37;;;2.07;;
38637;SDS011;24401;53.034;-3.030;2023-04-24T14:21:45;6.30;;;1.67;;
38637;SDS011;24401;53.034;-3.030;2023-04-24T14:24:15;3.40;;;1.30;;
38637;SDS011;24401;53.034;-3.030;2023-04-24T14:26:45;3.43;;;1.63;;
38637;SDS011;24401;53.034;-3.030;2023-04-24T14:29:15;5.00;;;1.53;;
38637;SDS011;24401;53.034;-3.030;2023-04-24T14:31:46;11.63;;;1.83;;
38637;SDS011;24401;53.034;-3.030;2023-04-24T14:34:16;4.27;;;1.53;;
38637;SDS011;24401;53.034;-3.030;2023-04-24T14:36:47;4.23;;;1.97;;
38637;SDS011;24401;53.034;-3.030;2023-04-24T14:39:17;4.00;;;1.30;;
38637;SDS011;24401;53.034;-3.030;2023-04-24T14:41:47;3.03;;;1.53;;
38637;SDS011;24401;53.034;-3.030;2023-04-24T14:44:18;6.67;;;1.50;;
38637;SDS011;24401;53.034;-3.030;2023-04-24T14:46:48;7.80;;;1.63;;
38637;SDS011;24401;53.034;-3.030;2023-04-24T14:49:19;3.47;;;1.20;;
38637;SDS011;24401;53.034;-3.030;2023-04-24T14:51:49;2.60;;;1.00;;
38637;SDS011;24401;53.034;-3.030;2023-04-24T14:54:19;3.80;;;1.23;;
38637;SDS011;24401;53.034;-3.030;2023-04-24T14:56:53;4.53;;;1.85;;
38637;SDS011;24401;53.034;-3.030;2023-04-24T14:59:24;8.65;;;1.40;;
38637;SDS011;24401;53.034;-3.030;2023-04-24T15:01:54;5.73;;;1.30;;